Billy Bishop Toronto City Centre Airport
CYTZ : rendu visible

Aérodrome :











RETROUVEZ-NOUS SUR...

 
LOGIN :

S'inscrire | Disclaimer

   EN    FR    IT 

 









Légende :    VFR   VFR Marginal   IFR   IFR Intensif   IFR Très Intensif
Visi : 
Plafond : 
>= 8 km
>= 3000ft
5 à 8 km
1000 à 3000 ft
1500m à 5 km
500 à 1000 ft
800 à 1500m
200 à 500 ft
< 800m
< 200 ft
Symboles :   Orages  Brouillard  Fortes neiges  Fortes précipitations  Vent > 20 kt







- Altitude de l'aérodrome : 251 ft
- Code IATA : YTZ


CYTZ - Billy Bishop Toronto City Centre

DERNIER METAR :
  • 241900Z AUTO 18006KT 160V220 9SM FEW039 09/04 A2991 RMK SLP133

METARs EXPIRÉS :
  • 241800Z AUTO 34004G15KT 260V010 9SM BKN037 11/03 A2992 RMK SLP137
  • 241700Z AUTO 27011KT 250V320 9SM BKN033 09/02 A2994 RMK SLP142

TAF TAF CYTZ
Valide du 24 à 20h jusqu'au 25 à 20h UTC


241938Z 2420/2520 17005KT P6SM SCT030
FM250200 35005KT P6SM FEW030
FM251500 12006KT P6SM BKN240 RMK FCST BASED ON AUTO OBS. NXT FCST BY 250200Z
FIR CZYZ / Amérique du Nord



MET'MAP, la Météo Aéronautique d'un coup d'oeil ! - Copyright ORBIFLY Décembre 2007 - Disclaimer

ORBIFLY MET'MAP TEAM :

Programmation & Développement : Alexandra Zaïnal
Conception & Développement : Baudouin d'Aumeries
Co-Programmation & Développement : Marc-Olivier Méhu
Soutien technique & logistique : Manuel Goepfert

Contact : metmap@orbifly.com




SOURCES & CREDITS :

   NOAA       Earth
Advisory